Aérodrome :
LOGIN :

S'inscrire | Disclaimer

   EN    FR    IT 

 










Légende :    VFR   VFR Marginal   IFR   IFR Intensif   IFR Très Intensif
Visi : 
Plafond : 
>= 8 km
>= 3000ft
5 à 8 km
1000 à 3000 ft
1500m à 5 km
500 à 1000 ft
800 à 1500m
200 à 500 ft
< 800m
< 200 ft
Symboles :   Orages  Brouillard  Fortes neiges  Fortes précipitations  Vent > 20 kt
SIGMETs :   Divers  Orages  Givrage  Turbulence  Onde Orograph.  Cendres Volcan.







- Altitude de l'aérodrome : 144 ft
- Code IATA : PGF
- Voir les cartes d'approche


LFMP - Perpignan

DERNIER METAR :
  • 221500Z AUTO 15004KT 9999 FEW060 SCT074 BKN088 10/M03 Q1007 TEMPO BKN014

METARs EXPIRÉS :
  • 221430Z AUTO 17004KT 9999 BKN100 BKN220 BKN240 10/M03 Q1007 TEMPO BKN014
  • 221400Z AUTO 12006KT 100V170 CAVOK 11/M03 Q1007 TEMPO BKN014
  • 221330Z AUTO 15004KT 110V180 CAVOK 11/M02 Q1008 TEMPO BKN014
  • 221300Z AUTO 21004KT 130V290 CAVOK 11/M06 Q1008 NOSIG
  • 221230Z AUTO 14003KT 070V220 CAVOK 10/M03 Q1008 NOSIG

TAF TAF LFMP
Valide du 22 à 15h jusqu'au 23 à 15h UTC


221400Z 2215/2315 VRB03KT 9999 BKN040
PROB30
TEMPO 2215/2218 -RA BKN014
TEMPO 2220/2303 31015G25KT
BECMG 2311/2313 32020G30KT
TEMPO 2313/2315 32025G40KT SHRA
ATIS : +33 4 68 63 75 12
Pas de NOTAMs connus pour ce terrain.



MET'MAP, la Météo Aéronautique d'un coup d'oeil ! - Copyright ORBIFLY Décembre 2007 - Disclaimer

ORBIFLY MET'MAP TEAM :

Programmation & Développement : Alexandra Zaïnal
Conception & Développement : Baudouin d'Aumeries
Co-Programmation & Développement : Marc-Olivier Méhu
Soutien technique & logistique : Manuel Goepfert

Contact : metmap@orbifly.com




SOURCES & CREDITS :

   NOAA